CheckWX is a tool to help pilots better visualize weather data.  It is not intended as a substitute for an official pre-flight weather briefing.

17:18:36 UTC

KDMA TAF
Davis Monthan AFB Airport
Tucson, Arizona, USA
TAF KDMA 181400Z 1814/1920 VRB06KT 9999 SKC QNH2997INS BECMG 1817/1818 23012KT 9999 SKC QNH2987INS TEMPO 1820/1824 25012G18KT BECMG 1902/1903 24009KT 9999 SKC QNH2991INS BECMG 1906/1907 VRB06KT 9999 SKC QNH2997INS TX38/1822Z TN19/1912Z

Jun-18@
14:00 UTC

Jun-18 @ 14:00 UTC

Jun-18@
17:00 UTC

Jun-18 @ 17:00 UTC

TAF KDMA 181400Z 1814/1920 VRB06KT 9999 SKC QNH2997INS

Expired

Wind
  • Variable at 6 KTS
Cloud Levels
  • Clear skies

Jun-18@
17:00 UTC

Jun-18 @ 17:00 UTC

Jun-19@
02:00 UTC

Jun-19 @ 02:00 UTC

BECMG 1817/1818 23012KT 9999 SKC QNH2987INS

Becoming

Becoming Conditions expected by Tue, Jun 18, 2019 @ 18:00 UTC

Wind
  • 230° at 12 KTS
Cloud Levels
  • Clear skies

Jun-18@
20:00 UTC

Jun-18 @ 20:00 UTC

Jun-19@
00:00 UTC

Jun-19 @ 00:00 UTC

TEMPO 1820/1824 25012G18KT

Temporary

Temporary Changes expected for less than half the time period

Wind
  • 250° at 12 KTS
  • {Gusting to 18 KTS

Jun-19@
02:00 UTC

Jun-19 @ 02:00 UTC

Jun-19@
06:00 UTC

Jun-19 @ 06:00 UTC

BECMG 1902/1903 24009KT 9999 SKC QNH2991INS

Becoming

Becoming Conditions expected by Wed, Jun 19, 2019 @ 03:00 UTC

Wind
  • 240° at 9 KTS
Cloud Levels
  • Clear skies

Jun-19@
06:00 UTC

Jun-19 @ 06:00 UTC

Jun-19@
20:00 UTC

Jun-19 @ 20:00 UTC

BECMG 1906/1907 VRB06KT 9999 SKC QNH2997INS TX38/1822Z TN19/1912Z

Becoming

Becoming Conditions expected by Wed, Jun 19, 2019 @ 07:00 UTC

Wind
  • Variable at 6 KTS
Cloud Levels
  • Clear skies